sensor_id;sensor_type;location;lat;lon;timestamp;P1;durP1;ratioP1;P2;durP2;ratioP2
54307;SDS011;40208;39.778;2.710;2024-01-27T00:02:30;16.30;;;11.35;;
54307;SDS011;40208;39.778;2.710;2024-01-27T00:05:15;16.90;;;12.27;;
54307;SDS011;40208;39.778;2.710;2024-01-27T00:08:00;15.68;;;12.38;;
54307;SDS011;40208;39.778;2.710;2024-01-27T00:10:45;16.05;;;11.52;;
54307;SDS011;40208;39.778;2.710;2024-01-27T00:13:30;18.30;;;13.32;;
54307;SDS011;40208;39.778;2.710;2024-01-27T00:16:15;30.45;;;16.85;;
54307;SDS011;40208;39.778;2.710;2024-01-27T00:19:00;21.45;;;16.52;;
54307;SDS011;40208;39.778;2.710;2024-01-27T00:21:45;17.70;;;11.95;;
54307;SDS011;40208;39.778;2.710;2024-01-27T00:24:30;17.30;;;11.27;;
54307;SDS011;40208;39.778;2.710;2024-01-27T00:27:15;16.25;;;10.15;;
54307;SDS011;40208;39.778;2.710;2024-01-27T00:30:00;16.38;;;11.32;;
54307;SDS011;40208;39.778;2.710;2024-01-27T00:32:45;19.35;;;13.88;;
54307;SDS011;40208;39.778;2.710;2024-01-27T00:35:30;20.08;;;13.57;;
54307;SDS011;40208;39.778;2.710;2024-01-27T00:38:15;17.15;;;13.45;;
54307;SDS011;40208;39.778;2.710;2024-01-27T00:41:00;26.70;;;16.38;;
54307;SDS011;40208;39.778;2.710;2024-01-27T00:43:45;22.60;;;15.82;;
54307;SDS011;40208;39.778;2.710;2024-01-27T00:46:30;22.67;;;16.65;;
54307;SDS011;40208;39.778;2.710;2024-01-27T00:49:15;25.63;;;17.10;;
54307;SDS011;40208;39.778;2.710;2024-01-27T00:52:00;19.20;;;13.88;;
54307;SDS011;40208;39.778;2.710;2024-01-27T00:54:45;20.63;;;14.55;;
54307;SDS011;40208;39.778;2.710;2024-01-27T00:57:29;22.85;;;14.35;;
54307;SDS011;40208;39.778;2.710;2024-01-27T01:00:14;26.10;;;14.20;;
54307;SDS011;40208;39.778;2.710;2024-01-27T01:02:59;18.77;;;13.00;;
54307;SDS011;40208;39.778;2.710;2024-01-27T01:05:44;16.10;;;10.82;;
54307;SDS011;40208;39.778;2.710;2024-01-27T01:08:29;12.40;;;9.55;;
54307;SDS011;40208;39.778;2.710;2024-01-27T01:11:13;19.10;;;11.50;;
54307;SDS011;40208;39.778;2.710;2024-01-27T01:13:59;18.60;;;11.65;;
54307;SDS011;40208;39.778;2.710;2024-01-27T01:16:44;17.95;;;12.18;;
54307;SDS011;40208;39.778;2.710;2024-01-27T01:19:29;18.63;;;12.60;;
54307;SDS011;40208;39.778;2.710;2024-01-27T01:22:14;17.67;;;12.45;;
54307;SDS011;40208;39.778;2.710;2024-01-27T01:24:59;21.75;;;15.20;;
54307;SDS011;40208;39.778;2.710;2024-01-27T01:27:45;21.45;;;13.77;;
54307;SDS011;40208;39.778;2.710;2024-01-27T01:30:30;22.92;;;12.77;;
54307;SDS011;40208;39.778;2.710;2024-01-27T01:33:15;14.35;;;8.90;;
54307;SDS011;40208;39.778;2.710;2024-01-27T01:36:00;11.50;;;7.28;;
54307;SDS011;40208;39.778;2.710;2024-01-27T01:38:45;15.43;;;8.73;;
54307;SDS011;40208;39.778;2.710;2024-01-27T01:41:30;10.05;;;6.90;;
54307;SDS011;40208;39.778;2.710;2024-01-27T01:44:15;10.55;;;6.60;;
54307;SDS011;40208;39.778;2.710;2024-01-27T01:47:00;9.27;;;6.10;;
54307;SDS011;40208;39.778;2.710;2024-01-27T01:49:45;12.18;;;7.68;;
54307;SDS011;40208;39.778;2.710;2024-01-27T01:52:30;10.07;;;7.47;;
54307;SDS011;40208;39.778;2.710;2024-01-27T01:55:15;9.13;;;6.78;;
54307;SDS011;40208;39.778;2.710;2024-01-27T01:58:01;10.63;;;7.50;;
54307;SDS011;40208;39.778;2.710;2024-01-27T02:00:46;10.20;;;7.03;;
54307;SDS011;40208;39.778;2.710;2024-01-27T02:03:31;14.65;;;8.50;;
54307;SDS011;40208;39.778;2.710;2024-01-27T02:06:16;14.68;;;8.90;;
54307;SDS011;40208;39.778;2.710;2024-01-27T02:09:01;13.55;;;8.35;;
54307;SDS011;40208;39.778;2.710;2024-01-27T02:11:46;15.73;;;6.30;;
54307;SDS011;40208;39.778;2.710;2024-01-27T02:14:30;11.10;;;6.53;;
54307;SDS011;40208;39.778;2.710;2024-01-27T02:17:15;11.63;;;7.05;;
54307;SDS011;40208;39.778;2.710;2024-01-27T02:20:00;12.43;;;6.30;;
54307;SDS011;40208;39.778;2.710;2024-01-27T02:22:46;13.43;;;7.35;;
54307;SDS011;40208;39.778;2.710;2024-01-27T02:25:31;8.52;;;6.25;;
54307;SDS011;40208;39.778;2.710;2024-01-27T02:28:16;12.63;;;6.72;;
54307;SDS011;40208;39.778;2.710;2024-01-27T02:31:01;9.98;;;5.32;;
54307;SDS011;40208;39.778;2.710;2024-01-27T02:33:47;11.65;;;6.32;;
54307;SDS011;40208;39.778;2.710;2024-01-27T02:36:32;9.48;;;7.13;;
54307;SDS011;40208;39.778;2.710;2024-01-27T02:39:17;18.83;;;9.98;;
54307;SDS011;40208;39.778;2.710;2024-01-27T02:42:02;18.63;;;9.63;;
54307;SDS011;40208;39.778;2.710;2024-01-27T02:44:47;9.68;;;7.50;;
54307;SDS011;40208;39.778;2.710;2024-01-27T02:47:32;12.95;;;7.30;;
54307;SDS011;40208;39.778;2.710;2024-01-27T02:50:16;16.73;;;7.22;;
54307;SDS011;40208;39.778;2.710;2024-01-27T02:53:02;18.08;;;9.57;;
54307;SDS011;40208;39.778;2.710;2024-01-27T02:55:47;21.65;;;11.55;;
54307;SDS011;40208;39.778;2.710;2024-01-27T02:58:32;19.15;;;11.38;;
54307;SDS011;40208;39.778;2.710;2024-01-27T03:01:17;19.73;;;9.75;;
54307;SDS011;40208;39.778;2.710;2024-01-27T03:04:02;15.73;;;9.18;;
54307;SDS011;40208;39.778;2.710;2024-01-27T03:06:48;19.38;;;11.75;;
54307;SDS011;40208;39.778;2.710;2024-01-27T03:09:33;21.98;;;12.93;;
54307;SDS011;40208;39.778;2.710;2024-01-27T03:12:18;33.78;;;18.13;;
54307;SDS011;40208;39.778;2.710;2024-01-27T03:15:04;33.28;;;19.27;;
54307;SDS011;40208;39.778;2.710;2024-01-27T03:17:49;24.85;;;15.30;;
54307;SDS011;40208;39.778;2.710;2024-01-27T03:20:34;26.10;;;15.75;;
54307;SDS011;40208;39.778;2.710;2024-01-27T03:23:19;19.52;;;11.90;;
54307;SDS011;40208;39.778;2.710;2024-01-27T03:26:04;13.70;;;7.80;;
54307;SDS011;40208;39.778;2.710;2024-01-27T03:28:49;12.27;;;8.68;;
54307;SDS011;40208;39.778;2.710;2024-01-27T03:31:33;15.90;;;10.05;;
54307;SDS011;40208;39.778;2.710;2024-01-27T03:34:18;23.83;;;12.18;;
54307;SDS011;40208;39.778;2.710;2024-01-27T03:37:08;23.23;;;12.60;;
54307;SDS011;40208;39.778;2.710;2024-01-27T03:39:53;20.95;;;9.98;;
54307;SDS011;40208;39.778;2.710;2024-01-27T03:42:38;18.83;;;11.45;;
54307;SDS011;40208;39.778;2.710;2024-01-27T03:45:23;19.98;;;10.85;;
54307;SDS011;40208;39.778;2.710;2024-01-27T03:48:07;19.52;;;10.95;;
54307;SDS011;40208;39.778;2.710;2024-01-27T03:50:53;18.27;;;11.07;;
54307;SDS011;40208;39.778;2.710;2024-01-27T03:53:37;19.42;;;9.80;;
54307;SDS011;40208;39.778;2.710;2024-01-27T03:56:22;14.20;;;9.65;;
54307;SDS011;40208;39.778;2.710;2024-01-27T03:59:07;14.35;;;8.60;;
54307;SDS011;40208;39.778;2.710;2024-01-27T04:01:53;13.35;;;7.70;;
54307;SDS011;40208;39.778;2.710;2024-01-27T04:04:38;7.63;;;4.65;;
54307;SDS011;40208;39.778;2.710;2024-01-27T04:07:23;8.23;;;4.38;;
54307;SDS011;40208;39.778;2.710;2024-01-27T04:10:08;6.15;;;3.92;;
54307;SDS011;40208;39.778;2.710;2024-01-27T04:12:53;7.70;;;3.95;;
54307;SDS011;40208;39.778;2.710;2024-01-27T04:15:38;8.82;;;5.40;;
54307;SDS011;40208;39.778;2.710;2024-01-27T04:18:23;12.75;;;6.38;;
54307;SDS011;40208;39.778;2.710;2024-01-27T04:21:08;7.53;;;4.93;;
54307;SDS011;40208;39.778;2.710;2024-01-27T04:23:53;8.65;;;5.47;;
54307;SDS011;40208;39.778;2.710;2024-01-27T04:26:38;10.80;;;5.40;;
54307;SDS011;40208;39.778;2.710;2024-01-27T04:29:23;8.88;;;5.10;;
54307;SDS011;40208;39.778;2.710;2024-01-27T04:32:07;8.63;;;4.63;;
54307;SDS011;40208;39.778;2.710;2024-01-27T04:34:52;8.05;;;5.18;;
54307;SDS011;40208;39.778;2.710;2024-01-27T04:37:37;9.65;;;5.82;;
54307;SDS011;40208;39.778;2.710;2024-01-27T04:40:23;9.30;;;4.22;;
54307;SDS011;40208;39.778;2.710;2024-01-27T04:43:08;6.85;;;4.45;;
54307;SDS011;40208;39.778;2.710;2024-01-27T04:45:53;14.35;;;4.85;;
54307;SDS011;40208;39.778;2.710;2024-01-27T04:48:38;5.57;;;4.32;;
54307;SDS011;40208;39.778;2.710;2024-01-27T04:51:23;7.78;;;4.93;;
54307;SDS011;40208;39.778;2.710;2024-01-27T04:54:08;9.07;;;5.57;;
54307;SDS011;40208;39.778;2.710;2024-01-27T04:56:53;10.60;;;6.65;;
54307;SDS011;40208;39.778;2.710;2024-01-27T04:59:38;11.60;;;5.40;;
54307;SDS011;40208;39.778;2.710;2024-01-27T05:02:23;9.73;;;4.55;;
54307;SDS011;40208;39.778;2.710;2024-01-27T05:05:08;7.60;;;3.65;;
54307;SDS011;40208;39.778;2.710;2024-01-27T05:07:54;8.73;;;3.60;;
54307;SDS011;40208;39.778;2.710;2024-01-27T05:10:38;5.45;;;3.70;;
54307;SDS011;40208;39.778;2.710;2024-01-27T05:13:23;7.80;;;3.60;;
54307;SDS011;40208;39.778;2.710;2024-01-27T05:16:08;5.32;;;3.05;;
54307;SDS011;40208;39.778;2.710;2024-01-27T05:18:53;6.25;;;3.25;;
54307;SDS011;40208;39.778;2.710;2024-01-27T05:21:39;13.90;;;9.32;;
54307;SDS011;40208;39.778;2.710;2024-01-27T05:24:24;18.58;;;8.90;;
54307;SDS011;40208;39.778;2.710;2024-01-27T05:27:09;19.55;;;9.25;;
54307;SDS011;40208;39.778;2.710;2024-01-27T05:29:54;16.30;;;9.95;;
54307;SDS011;40208;39.778;2.710;2024-01-27T05:32:39;12.75;;;7.28;;
54307;SDS011;40208;39.778;2.710;2024-01-27T05:35:24;9.75;;;5.28;;
54307;SDS011;40208;39.778;2.710;2024-01-27T05:38:09;9.98;;;5.32;;
54307;SDS011;40208;39.778;2.710;2024-01-27T05:40:54;9.50;;;5.22;;
54307;SDS011;40208;39.778;2.710;2024-01-27T05:43:39;6.25;;;3.70;;
54307;SDS011;40208;39.778;2.710;2024-01-27T05:46:24;9.55;;;5.72;;
54307;SDS011;40208;39.778;2.710;2024-01-27T05:49:09;13.48;;;6.28;;
54307;SDS011;40208;39.778;2.710;2024-01-27T05:51:54;15.70;;;7.20;;
54307;SDS011;40208;39.778;2.710;2024-01-27T05:54:40;11.63;;;7.78;;
54307;SDS011;40208;39.778;2.710;2024-01-27T05:57:28;9.88;;;6.90;;
54307;SDS011;40208;39.778;2.710;2024-01-27T06:00:13;11.07;;;7.80;;
54307;SDS011;40208;39.778;2.710;2024-01-27T06:02:58;13.50;;;7.63;;
54307;SDS011;40208;39.778;2.710;2024-01-27T06:05:43;10.30;;;6.57;;
54307;SDS011;40208;39.778;2.710;2024-01-27T06:08:28;12.13;;;6.63;;
54307;SDS011;40208;39.778;2.710;2024-01-27T06:11:13;14.88;;;6.65;;
54307;SDS011;40208;39.778;2.710;2024-01-27T06:13:59;14.60;;;6.15;;
54307;SDS011;40208;39.778;2.710;2024-01-27T06:16:43;10.68;;;4.95;;
54307;SDS011;40208;39.778;2.710;2024-01-27T06:19:28;9.77;;;4.68;;
54307;SDS011;40208;39.778;2.710;2024-01-27T06:22:13;6.50;;;3.78;;
54307;SDS011;40208;39.778;2.710;2024-01-27T06:24:58;9.07;;;3.38;;
54307;SDS011;40208;39.778;2.710;2024-01-27T06:27:43;10.48;;;4.20;;
54307;SDS011;40208;39.778;2.710;2024-01-27T06:30:28;13.45;;;4.50;;
54307;SDS011;40208;39.778;2.710;2024-01-27T06:33:13;10.45;;;5.60;;
54307;SDS011;40208;39.778;2.710;2024-01-27T06:35:58;8.02;;;4.50;;
54307;SDS011;40208;39.778;2.710;2024-01-27T06:38:43;6.97;;;4.90;;
54307;SDS011;40208;39.778;2.710;2024-01-27T06:41:28;14.48;;;5.70;;
54307;SDS011;40208;39.778;2.710;2024-01-27T06:44:13;16.88;;;6.50;;
54307;SDS011;40208;39.778;2.710;2024-01-27T06:46:58;8.40;;;5.85;;
54307;SDS011;40208;39.778;2.710;2024-01-27T06:49:43;12.23;;;5.88;;
54307;SDS011;40208;39.778;2.710;2024-01-27T06:52:28;12.00;;;5.75;;
54307;SDS011;40208;39.778;2.710;2024-01-27T06:55:13;9.05;;;5.28;;
54307;SDS011;40208;39.778;2.710;2024-01-27T06:57:58;8.63;;;5.13;;
54307;SDS011;40208;39.778;2.710;2024-01-27T07:00:43;10.65;;;5.55;;
54307;SDS011;40208;39.778;2.710;2024-01-27T07:03:29;13.43;;;5.50;;
54307;SDS011;40208;39.778;2.710;2024-01-27T07:06:14;10.60;;;5.25;;
54307;SDS011;40208;39.778;2.710;2024-01-27T07:08:59;7.72;;;4.65;;
54307;SDS011;40208;39.778;2.710;2024-01-27T07:11:44;9.85;;;3.92;;
54307;SDS011;40208;39.778;2.710;2024-01-27T07:14:28;5.75;;;3.55;;
54307;SDS011;40208;39.778;2.710;2024-01-27T07:17:13;9.48;;;3.90;;
54307;SDS011;40208;39.778;2.710;2024-01-27T07:19:58;8.85;;;3.20;;
54307;SDS011;40208;39.778;2.710;2024-01-27T07:22:43;11.35;;;4.07;;
54307;SDS011;40208;39.778;2.710;2024-01-27T07:25:28;6.63;;;3.90;;
54307;SDS011;40208;39.778;2.710;2024-01-27T07:28:14;6.70;;;3.80;;
54307;SDS011;40208;39.778;2.710;2024-01-27T07:31:00;10.88;;;4.20;;
54307;SDS011;40208;39.778;2.710;2024-01-27T07:33:45;9.30;;;4.28;;
54307;SDS011;40208;39.778;2.710;2024-01-27T07:36:30;12.82;;;3.97;;
54307;SDS011;40208;39.778;2.710;2024-01-27T07:39:16;12.45;;;4.95;;
54307;SDS011;40208;39.778;2.710;2024-01-27T07:42:01;9.25;;;5.68;;
54307;SDS011;40208;39.778;2.710;2024-01-27T07:44:46;14.45;;;5.93;;
54307;SDS011;40208;39.778;2.710;2024-01-27T07:47:31;13.32;;;5.50;;
54307;SDS011;40208;39.778;2.710;2024-01-27T07:50:16;13.35;;;6.32;;
54307;SDS011;40208;39.778;2.710;2024-01-27T07:53:01;13.77;;;8.80;;
54307;SDS011;40208;39.778;2.710;2024-01-27T07:55:45;21.75;;;8.90;;
54307;SDS011;40208;39.778;2.710;2024-01-27T07:58:30;13.93;;;8.13;;
54307;SDS011;40208;39.778;2.710;2024-01-27T08:01:16;14.52;;;8.35;;
54307;SDS011;40208;39.778;2.710;2024-01-27T08:04:01;15.23;;;8.27;;
54307;SDS011;40208;39.778;2.710;2024-01-27T08:06:46;17.80;;;7.82;;
54307;SDS011;40208;39.778;2.710;2024-01-27T08:09:33;17.85;;;9.50;;
54307;SDS011;40208;39.778;2.710;2024-01-27T08:12:18;18.90;;;9.13;;
54307;SDS011;40208;39.778;2.710;2024-01-27T08:15:03;21.15;;;10.02;;
54307;SDS011;40208;39.778;2.710;2024-01-27T08:17:49;20.33;;;9.30;;
54307;SDS011;40208;39.778;2.710;2024-01-27T08:20:33;19.98;;;8.40;;
54307;SDS011;40208;39.778;2.710;2024-01-27T08:23:18;14.07;;;7.75;;
54307;SDS011;40208;39.778;2.710;2024-01-27T08:26:03;18.70;;;8.77;;
54307;SDS011;40208;39.778;2.710;2024-01-27T08:28:48;18.63;;;6.72;;
54307;SDS011;40208;39.778;2.710;2024-01-27T08:31:33;15.38;;;9.05;;
54307;SDS011;40208;39.778;2.710;2024-01-27T08:34:18;24.80;;;12.43;;
54307;SDS011;40208;39.778;2.710;2024-01-27T08:37:13;39.67;;;20.98;;
54307;SDS011;40208;39.778;2.710;2024-01-27T08:40:00;40.90;;;22.73;;
54307;SDS011;40208;39.778;2.710;2024-01-27T08:42:45;39.40;;;23.25;;
54307;SDS011;40208;39.778;2.710;2024-01-27T08:45:30;35.20;;;21.25;;
54307;SDS011;40208;39.778;2.710;2024-01-27T08:48:15;39.70;;;24.58;;
54307;SDS011;40208;39.778;2.710;2024-01-27T08:51:01;50.85;;;28.27;;
54307;SDS011;40208;39.778;2.710;2024-01-27T08:53:45;54.92;;;29.63;;
54307;SDS011;40208;39.778;2.710;2024-01-27T08:56:33;47.80;;;28.00;;
54307;SDS011;40208;39.778;2.710;2024-01-27T08:59:18;45.10;;;25.70;;
54307;SDS011;40208;39.778;2.710;2024-01-27T09:02:02;37.40;;;22.30;;
54307;SDS011;40208;39.778;2.710;2024-01-27T09:04:47;34.65;;;19.20;;
54307;SDS011;40208;39.778;2.710;2024-01-27T09:07:33;36.17;;;18.00;;
54307;SDS011;40208;39.778;2.710;2024-01-27T09:10:18;35.53;;;18.45;;
54307;SDS011;40208;39.778;2.710;2024-01-27T09:13:03;33.35;;;17.90;;
54307;SDS011;40208;39.778;2.710;2024-01-27T09:15:52;37.67;;;20.52;;
54307;SDS011;40208;39.778;2.710;2024-01-27T09:18:36;31.58;;;19.42;;
54307;SDS011;40208;39.778;2.710;2024-01-27T09:21:21;38.50;;;20.85;;
54307;SDS011;40208;39.778;2.710;2024-01-27T09:24:12;40.50;;;20.48;;
54307;SDS011;40208;39.778;2.710;2024-01-27T09:26:57;44.58;;;19.58;;
54307;SDS011;40208;39.778;2.710;2024-01-27T09:29:42;51.90;;;22.85;;
54307;SDS011;40208;39.778;2.710;2024-01-27T09:32:27;45.92;;;20.50;;
54307;SDS011;40208;39.778;2.710;2024-01-27T09:35:12;46.47;;;23.30;;
54307;SDS011;40208;39.778;2.710;2024-01-27T09:37:57;43.90;;;23.38;;
54307;SDS011;40208;39.778;2.710;2024-01-27T09:40:42;47.88;;;25.70;;
54307;SDS011;40208;39.778;2.710;2024-01-27T09:43:27;65.47;;;30.08;;
54307;SDS011;40208;39.778;2.710;2024-01-27T09:46:15;64.10;;;32.53;;
54307;SDS011;40208;39.778;2.710;2024-01-27T09:49:00;47.88;;;26.45;;
54307;SDS011;40208;39.778;2.710;2024-01-27T09:51:48;52.33;;;26.08;;
54307;SDS011;40208;39.778;2.710;2024-01-27T09:54:33;68.70;;;28.65;;
54307;SDS011;40208;39.778;2.710;2024-01-27T09:57:19;57.03;;;27.83;;
54307;SDS011;40208;39.778;2.710;2024-01-27T10:00:06;50.53;;;26.63;;
54307;SDS011;40208;39.778;2.710;2024-01-27T10:02:56;55.53;;;26.38;;
54307;SDS011;40208;39.778;2.710;2024-01-27T10:05:42;63.63;;;31.20;;
54307;SDS011;40208;39.778;2.710;2024-01-27T10:08:28;74.50;;;34.45;;
54307;SDS011;40208;39.778;2.710;2024-01-27T10:11:13;80.68;;;40.53;;
54307;SDS011;40208;39.778;2.710;2024-01-27T10:13:59;81.50;;;41.83;;
54307;SDS011;40208;39.778;2.710;2024-01-27T10:16:44;71.88;;;39.28;;
54307;SDS011;40208;39.778;2.710;2024-01-27T10:19:30;80.93;;;42.80;;
54307;SDS011;40208;39.778;2.710;2024-01-27T10:22:15;96.70;;;48.63;;
54307;SDS011;40208;39.778;2.710;2024-01-27T10:25:00;106.95;;;49.90;;
54307;SDS011;40208;39.778;2.710;2024-01-27T10:27:46;87.45;;;44.28;;
54307;SDS011;40208;39.778;2.710;2024-01-27T10:30:31;88.20;;;43.70;;
54307;SDS011;40208;39.778;2.710;2024-01-27T10:33:16;78.78;;;43.08;;
54307;SDS011;40208;39.778;2.710;2024-01-27T10:36:01;81.82;;;44.42;;
54307;SDS011;40208;39.778;2.710;2024-01-27T10:38:47;96.68;;;46.83;;
54307;SDS011;40208;39.778;2.710;2024-01-27T10:41:32;75.47;;;40.08;;
54307;SDS011;40208;39.778;2.710;2024-01-27T10:44:20;83.03;;;40.47;;
54307;SDS011;40208;39.778;2.710;2024-01-27T10:47:06;75.32;;;35.67;;
54307;SDS011;40208;39.778;2.710;2024-01-27T10:49:57;69.65;;;35.67;;
54307;SDS011;40208;39.778;2.710;2024-01-27T10:52:43;78.40;;;38.20;;
54307;SDS011;40208;39.778;2.710;2024-01-27T10:55:30;68.70;;;38.38;;
54307;SDS011;40208;39.778;2.710;2024-01-27T10:58:18;75.40;;;35.92;;
54307;SDS011;40208;39.778;2.710;2024-01-27T11:01:05;65.43;;;32.58;;
54307;SDS011;40208;39.778;2.710;2024-01-27T11:03:52;65.43;;;31.42;;
54307;SDS011;40208;39.778;2.710;2024-01-27T11:06:39;56.05;;;27.58;;
54307;SDS011;40208;39.778;2.710;2024-01-27T11:09:26;41.80;;;20.58;;
54307;SDS011;40208;39.778;2.710;2024-01-27T11:12:12;28.33;;;13.43;;
54307;SDS011;40208;39.778;2.710;2024-01-27T11:14:57;25.02;;;11.82;;
54307;SDS011;40208;39.778;2.710;2024-01-27T11:17:45;29.35;;;11.77;;
54307;SDS011;40208;39.778;2.710;2024-01-27T11:20:31;35.95;;;19.98;;
54307;SDS011;40208;39.778;2.710;2024-01-27T11:23:16;38.50;;;19.27;;
54307;SDS011;40208;39.778;2.710;2024-01-27T11:26:02;50.20;;;27.38;;
54307;SDS011;40208;39.778;2.710;2024-01-27T11:28:50;61.20;;;29.60;;
54307;SDS011;40208;39.778;2.710;2024-01-27T11:31:35;50.47;;;24.08;;
54307;SDS011;40208;39.778;2.710;2024-01-27T11:34:24;192.20;;;82.97;;
54307;SDS011;40208;39.778;2.710;2024-01-27T11:37:13;119.43;;;55.53;;
54307;SDS011;40208;39.778;2.710;2024-01-27T11:40:05;42.28;;;24.25;;
54307;SDS011;40208;39.778;2.710;2024-01-27T11:45:40;32.90;;;13.67;;
54307;SDS011;40208;39.778;2.710;2024-01-27T11:48:25;30.60;;;14.20;;
54307;SDS011;40208;39.778;2.710;2024-01-27T11:51:11;27.15;;;13.38;;
54307;SDS011;40208;39.778;2.710;2024-01-27T11:53:56;30.45;;;13.90;;
54307;SDS011;40208;39.778;2.710;2024-01-27T11:56:41;22.98;;;11.25;;
54307;SDS011;40208;39.778;2.710;2024-01-27T11:59:26;27.08;;;12.77;;
54307;SDS011;40208;39.778;2.710;2024-01-27T12:02:11;25.05;;;11.98;;
54307;SDS011;40208;39.778;2.710;2024-01-27T12:04:56;22.15;;;9.90;;
54307;SDS011;40208;39.778;2.710;2024-01-27T12:07:41;20.55;;;8.73;;
54307;SDS011;40208;39.778;2.710;2024-01-27T12:10:26;20.73;;;8.43;;
54307;SDS011;40208;39.778;2.710;2024-01-27T12:13:11;24.02;;;8.75;;
54307;SDS011;40208;39.778;2.710;2024-01-27T12:15:55;15.00;;;7.05;;
54307;SDS011;40208;39.778;2.710;2024-01-27T12:18:41;13.80;;;7.38;;
54307;SDS011;40208;39.778;2.710;2024-01-27T12:21:26;27.45;;;11.50;;
54307;SDS011;40208;39.778;2.710;2024-01-27T12:24:15;21.98;;;9.77;;
54307;SDS011;40208;39.778;2.710;2024-01-27T12:27:01;18.38;;;8.07;;
54307;SDS011;40208;39.778;2.710;2024-01-27T12:29:47;18.85;;;8.80;;
54307;SDS011;40208;39.778;2.710;2024-01-27T12:32:32;23.52;;;10.30;;
54307;SDS011;40208;39.778;2.710;2024-01-27T12:35:17;18.75;;;9.30;;
54307;SDS011;40208;39.778;2.710;2024-01-27T12:38:02;17.70;;;8.85;;
54307;SDS011;40208;39.778;2.710;2024-01-27T12:40:49;19.75;;;9.38;;
54307;SDS011;40208;39.778;2.710;2024-01-27T12:43:34;20.20;;;7.70;;
54307;SDS011;40208;39.778;2.710;2024-01-27T12:46:19;26.33;;;11.85;;
54307;SDS011;40208;39.778;2.710;2024-01-27T12:49:04;18.70;;;9.50;;
54307;SDS011;40208;39.778;2.710;2024-01-27T12:51:49;20.20;;;9.10;;
54307;SDS011;40208;39.778;2.710;2024-01-27T12:54:34;19.30;;;9.85;;
54307;SDS011;40208;39.778;2.710;2024-01-27T12:57:19;18.85;;;8.30;;
54307;SDS011;40208;39.778;2.710;2024-01-27T13:00:04;23.70;;;10.18;;
54307;SDS011;40208;39.778;2.710;2024-01-27T13:02:54;23.50;;;11.23;;
54307;SDS011;40208;39.778;2.710;2024-01-27T13:05:39;19.58;;;8.98;;
54307;SDS011;40208;39.778;2.710;2024-01-27T13:08:23;19.45;;;8.75;;
54307;SDS011;40208;39.778;2.710;2024-01-27T13:11:08;16.13;;;8.43;;
54307;SDS011;40208;39.778;2.710;2024-01-27T13:13:53;21.63;;;10.02;;
54307;SDS011;40208;39.778;2.710;2024-01-27T13:16:38;17.13;;;8.38;;
54307;SDS011;40208;39.778;2.710;2024-01-27T13:19:23;18.92;;;7.50;;
54307;SDS011;40208;39.778;2.710;2024-01-27T13:22:08;14.40;;;6.70;;
54307;SDS011;40208;39.778;2.710;2024-01-27T13:24:53;17.02;;;6.45;;
54307;SDS011;40208;39.778;2.710;2024-01-27T13:27:39;15.77;;;6.05;;
54307;SDS011;40208;39.778;2.710;2024-01-27T13:30:23;14.57;;;5.55;;
54307;SDS011;40208;39.778;2.710;2024-01-27T13:33:08;14.25;;;5.63;;
54307;SDS011;40208;39.778;2.710;2024-01-27T13:35:53;17.13;;;7.95;;
54307;SDS011;40208;39.778;2.710;2024-01-27T13:38:39;19.92;;;8.63;;
54307;SDS011;40208;39.778;2.710;2024-01-27T13:41:23;20.00;;;9.02;;
54307;SDS011;40208;39.778;2.710;2024-01-27T13:44:09;16.02;;;7.70;;
54307;SDS011;40208;39.778;2.710;2024-01-27T13:46:54;14.57;;;7.57;;
54307;SDS011;40208;39.778;2.710;2024-01-27T13:49:44;14.98;;;6.47;;
54307;SDS011;40208;39.778;2.710;2024-01-27T13:52:29;16.00;;;6.20;;
54307;SDS011;40208;39.778;2.710;2024-01-27T13:55:14;15.00;;;7.20;;
54307;SDS011;40208;39.778;2.710;2024-01-27T13:57:59;18.52;;;7.72;;
54307;SDS011;40208;39.778;2.710;2024-01-27T14:00:44;14.55;;;6.82;;
54307;SDS011;40208;39.778;2.710;2024-01-27T14:03:28;16.42;;;6.65;;
54307;SDS011;40208;39.778;2.710;2024-01-27T14:06:13;13.93;;;5.85;;
54307;SDS011;40208;39.778;2.710;2024-01-27T14:08:58;11.45;;;5.90;;
54307;SDS011;40208;39.778;2.710;2024-01-27T14:11:43;14.75;;;6.43;;
54307;SDS011;40208;39.778;2.710;2024-01-27T14:14:28;19.67;;;5.95;;
54307;SDS011;40208;39.778;2.710;2024-01-27T14:17:13;14.07;;;6.82;;
54307;SDS011;40208;39.778;2.710;2024-01-27T14:19:59;12.95;;;6.82;;
54307;SDS011;40208;39.778;2.710;2024-01-27T14:22:43;16.48;;;7.80;;
54307;SDS011;40208;39.778;2.710;2024-01-27T14:25:28;15.25;;;6.65;;
54307;SDS011;40208;39.778;2.710;2024-01-27T14:28:13;10.30;;;6.00;;
54307;SDS011;40208;39.778;2.710;2024-01-27T14:30:59;12.98;;;6.38;;
54307;SDS011;40208;39.778;2.710;2024-01-27T14:33:44;17.45;;;6.13;;
54307;SDS011;40208;39.778;2.710;2024-01-27T14:36:28;17.92;;;6.97;;
54307;SDS011;40208;39.778;2.710;2024-01-27T14:39:14;13.65;;;6.70;;
54307;SDS011;40208;39.778;2.710;2024-01-27T14:41:58;14.02;;;6.75;;
54307;SDS011;40208;39.778;2.710;2024-01-27T14:44:43;16.33;;;6.53;;
54307;SDS011;40208;39.778;2.710;2024-01-27T14:47:29;10.57;;;6.05;;
54307;SDS011;40208;39.778;2.710;2024-01-27T14:50:14;17.10;;;7.28;;
54307;SDS011;40208;39.778;2.710;2024-01-27T14:52:59;20.70;;;8.43;;
54307;SDS011;40208;39.778;2.710;2024-01-27T14:55:46;19.10;;;9.10;;
54307;SDS011;40208;39.778;2.710;2024-01-27T14:58:31;25.02;;;7.78;;
54307;SDS011;40208;39.778;2.710;2024-01-27T15:01:16;16.92;;;7.40;;
54307;SDS011;40208;39.778;2.710;2024-01-27T15:04:01;17.95;;;9.02;;
54307;SDS011;40208;39.778;2.710;2024-01-27T15:06:46;13.73;;;6.43;;
54307;SDS011;40208;39.778;2.710;2024-01-27T15:09:31;18.40;;;6.88;;
54307;SDS011;40208;39.778;2.710;2024-01-27T15:12:16;10.50;;;5.40;;
54307;SDS011;40208;39.778;2.710;2024-01-27T15:15:01;14.70;;;5.72;;
54307;SDS011;40208;39.778;2.710;2024-01-27T15:17:47;14.18;;;7.18;;
54307;SDS011;40208;39.778;2.710;2024-01-27T15:20:32;15.40;;;6.85;;
54307;SDS011;40208;39.778;2.710;2024-01-27T15:23:17;13.90;;;6.25;;
54307;SDS011;40208;39.778;2.710;2024-01-27T15:26:06;17.55;;;7.80;;
54307;SDS011;40208;39.778;2.710;2024-01-27T15:28:50;12.00;;;6.75;;
54307;SDS011;40208;39.778;2.710;2024-01-27T15:31:35;13.38;;;6.60;;
54307;SDS011;40208;39.778;2.710;2024-01-27T15:34:20;13.02;;;6.22;;
54307;SDS011;40208;39.778;2.710;2024-01-27T15:37:05;13.48;;;6.28;;
54307;SDS011;40208;39.778;2.710;2024-01-27T15:39:50;18.60;;;7.13;;
54307;SDS011;40208;39.778;2.710;2024-01-27T15:42:36;12.07;;;6.97;;
54307;SDS011;40208;39.778;2.710;2024-01-27T15:45:21;13.85;;;6.68;;
54307;SDS011;40208;39.778;2.710;2024-01-27T15:48:06;14.43;;;7.50;;
54307;SDS011;40208;39.778;2.710;2024-01-27T15:50:52;20.08;;;7.80;;
54307;SDS011;40208;39.778;2.710;2024-01-27T15:53:36;17.25;;;8.07;;
54307;SDS011;40208;39.778;2.710;2024-01-27T15:56:21;15.70;;;8.50;;
54307;SDS011;40208;39.778;2.710;2024-01-27T15:59:06;17.13;;;8.02;;
54307;SDS011;40208;39.778;2.710;2024-01-27T16:01:51;13.68;;;7.05;;
54307;SDS011;40208;39.778;2.710;2024-01-27T16:04:36;11.80;;;6.47;;
54307;SDS011;40208;39.778;2.710;2024-01-27T16:07:21;13.55;;;6.40;;
54307;SDS011;40208;39.778;2.710;2024-01-27T16:10:07;14.52;;;7.32;;
54307;SDS011;40208;39.778;2.710;2024-01-27T16:12:52;13.93;;;7.22;;
54307;SDS011;40208;39.778;2.710;2024-01-27T16:15:37;11.52;;;6.30;;
54307;SDS011;40208;39.778;2.710;2024-01-27T16:18:22;15.85;;;7.20;;
54307;SDS011;40208;39.778;2.710;2024-01-27T16:21:07;12.07;;;7.07;;